Time;durP1;ratioP1;P1;durP2;ratioP2;P2;SDS_P1;SDS_P2;PMS_P1;PMS_P2;Temp;Humidity;BMP_temperature;BMP_pressure;BME280_temperature;BME280_humidity;BME280_pressure;Samples;Min_cycle;Max_cycle;Signal;HPM_P1;HPM_P2
2021/04/25 00:00:20;;;;;;;20.23;12.13;;;8.30;99.90;;;;;;5118286;27;20179;-66
2021/04/25 00:02:46;;;;;;;21.73;11.60;;;8.20;99.90;;;;;;5136885;27;20544;-68
2021/04/25 00:05:14;;;;;;;19.83;12.73;;;8.20;99.90;;;;;;5118132;27;20186;-67
2021/04/25 00:07:40;;;;;;;21.33;12.40;;;8.20;99.90;;;;;;5136718;27;20218;-69
2021/04/25 00:10:07;;;;;;;22.25;13.35;;;8.20;99.90;;;;;;5136550;27;20640;-68
2021/04/25 00:12:33;;;;;;;25.55;12.90;;;8.20;99.90;;;;;;5136883;27;20601;-66
2021/04/25 00:14:59;;;;;;;18.77;12.93;;;8.20;99.90;;;;;;5136458;27;20698;-65
2021/04/25 00:17:25;;;;;;;19.53;12.60;;;8.00;99.90;;;;;;5136731;27;20171;-67
2021/04/25 00:19:51;;;;;;;17.60;11.53;;;8.00;99.90;;;;;;5117863;27;20450;-67
2021/04/25 00:22:21;;;;;;;21.90;13.15;;;8.10;99.90;;;;;;5136165;27;20262;-67
2021/04/25 00:24:47;;;;;;;15.82;11.32;;;8.00;99.90;;;;;;5136258;27;20182;-66
2021/04/25 00:27:12;;;;;;;21.37;11.93;;;7.90;99.90;;;;;;5117847;27;20564;-65
2021/04/25 00:29:39;;;;;;;15.80;10.93;;;7.80;99.90;;;;;;5117659;27;20210;-68
2021/04/25 00:32:05;;;;;;;20.98;12.35;;;7.70;99.90;;;;;;5117746;27;20235;-68
2021/04/25 00:34:31;;;;;;;23.63;12.55;;;7.70;99.90;;;;;;5117588;27;20239;-67
2021/04/25 00:36:56;;;;;;;20.53;12.50;;;7.70;99.90;;;;;;5136211;27;20567;-69
2021/04/25 00:39:22;;;;;;;14.57;11.00;;;7.70;99.90;;;;;;5135905;27;20199;-68
2021/04/25 00:41:47;;;;;;;18.07;11.30;;;7.70;99.90;;;;;;5136075;27;20175;-68
2021/04/25 00:44:13;;;;;;;19.73;11.57;;;7.60;99.90;;;;;;5135915;27;20593;-66
2021/04/25 00:46:39;;;;;;;18.37;12.10;;;7.60;99.90;;;;;;5135397;27;20222;-68
2021/04/25 00:49:05;;;;;;;20.65;13.27;;;7.50;99.90;;;;;;5135719;27;20272;-67
2021/04/25 00:51:31;;;;;;;22.90;11.90;;;7.50;99.90;;;;;;5135989;27;20180;-65
2021/04/25 00:53:57;;;;;;;20.02;11.98;;;7.50;99.90;;;;;;5117183;27;20898;-68
2021/04/25 00:56:23;;;;;;;21.10;12.97;;;7.50;99.90;;;;;;5135808;27;20251;-65
2021/04/25 00:58:50;;;;;;;26.15;14.20;;;7.40;99.90;;;;;;5135508;27;20191;-67
2021/04/25 01:01:17;;;;;;;20.35;13.02;;;7.50;99.90;;;;;;5135576;27;20198;-67
2021/04/25 01:03:42;;;;;;;19.52;12.45;;;7.50;99.90;;;;;;5135299;27;20233;-68
2021/04/25 01:06:08;;;;;;;25.20;13.50;;;7.50;99.90;;;;;;5135594;27;20579;-65
2021/04/25 01:08:34;;;;;;;20.37;11.67;;;7.50;99.90;;;;;;5116762;27;20309;-67
2021/04/25 01:11:00;;;;;;;18.97;12.07;;;7.50;99.90;;;;;;5135421;27;20163;-68
2021/04/25 01:13:25;;;;;;;23.43;14.07;;;7.40;99.90;;;;;;5134636;27;20213;-66
2021/04/25 01:15:51;;;;;;;20.53;12.50;;;7.40;99.90;;;;;;5135200;27;20406;-68
2021/04/25 01:18:16;;;;;;;21.80;12.60;;;7.40;99.90;;;;;;5135191;27;20193;-67
2021/04/25 01:20:42;;;;;;;21.60;11.10;;;7.40;99.90;;;;;;5135175;27;20179;-66
2021/04/25 01:23:07;;;;;;;17.77;11.13;;;7.50;99.90;;;;;;5135069;27;20656;-65
2021/04/25 01:25:33;;;;;;;22.73;12.80;;;7.50;99.90;;;;;;5135060;27;20648;-66
2021/04/25 01:27:59;;;;;;;21.70;11.53;;;7.30;99.90;;;;;;5116468;27;20280;-66
2021/04/25 01:30:29;;;;;;;15.80;10.23;;;7.20;99.90;;;;;;5116571;27;20415;-68
2021/04/25 01:32:56;;;;;;;21.60;10.52;;;7.20;99.90;;;;;;5116570;27;20680;-66
2021/04/25 01:35:24;;;;;;;18.42;10.75;;;7.20;99.90;;;;;;5116540;27;20171;-66
2021/04/25 01:37:52;;;;;;;18.83;10.25;;;7.10;99.90;;;;;;5116522;27;20209;-67
2021/04/25 01:40:19;;;;;;;17.45;10.93;;;7.00;99.90;;;;;;5116512;27;20178;-68
2021/04/25 01:42:45;;;;;;;18.20;10.82;;;6.70;99.90;;;;;;5135228;27;20191;-68
2021/04/25 01:45:16;;;;;;;18.53;11.57;;;7.00;99.90;;;;;;5134815;27;20174;-67
2021/04/25 01:47:46;;;;;;;17.00;10.48;;;7.10;99.90;;;;;;5112544;28;20836;-65
2021/04/25 01:50:13;;;;;;;18.88;10.98;;;7.10;99.90;;;;;;5114257;28;20254;-65
2021/04/25 01:52:39;;;;;;;17.23;10.23;;;7.20;99.90;;;;;;5114509;28;20192;-66
2021/04/25 01:55:06;;;;;;;15.53;9.23;;;7.00;99.90;;;;;;5114132;28;20672;-68
2021/04/25 01:57:31;;;;;;;13.00;9.48;;;7.30;99.90;;;;;;5114495;28;20227;-67
2021/04/25 01:59:57;;;;;;;14.80;9.50;;;7.30;99.90;;;;;;5114047;28;20168;-67
2021/04/25 02:02:22;;;;;;;20.77;10.97;;;7.20;99.90;;;;;;5114397;28;20172;-67
2021/04/25 02:04:48;;;;;;;17.80;9.80;;;7.10;99.90;;;;;;5114040;28;20172;-67
2021/04/25 02:07:13;;;;;;;13.90;8.87;;;7.10;99.90;;;;;;5114289;28;20291;-65
2021/04/25 02:09:39;;;;;;;17.27;10.00;;;7.10;99.90;;;;;;5113873;28;20191;-67
2021/04/25 02:12:05;;;;;;;17.50;8.90;;;7.10;99.90;;;;;;5114361;28;20176;-65
2021/04/25 02:14:31;;;;;;;16.42;9.60;;;6.90;99.90;;;;;;5113933;28;20616;-67
2021/04/25 02:16:56;;;;;;;17.80;10.33;;;6.90;99.90;;;;;;5114261;28;20176;-66
2021/04/25 02:19:22;;;;;;;19.20;9.10;;;6.90;99.90;;;;;;5113882;28;20198;-68
2021/04/25 02:21:48;;;;;;;18.33;8.77;;;6.90;99.90;;;;;;5114212;28;20176;-67
2021/04/25 02:24:13;;;;;;;14.50;9.43;;;6.80;99.90;;;;;;5115186;28;20188;-65
2021/04/25 02:26:39;;;;;;;17.77;9.23;;;6.70;99.90;;;;;;5133871;27;20187;-67
2021/04/25 02:29:04;;;;;;;18.80;10.03;;;6.60;99.90;;;;;;5117869;28;20188;-66
2021/04/25 02:31:30;;;;;;;16.13;10.80;;;6.70;99.90;;;;;;5116520;28;20201;-67
2021/04/25 02:33:56;;;;;;;13.27;8.70;;;6.80;99.90;;;;;;5117732;27;20213;-66
2021/04/25 02:36:21;;;;;;;15.63;9.57;;;6.70;99.90;;;;;;5118118;28;20175;-65
2021/04/25 02:38:47;;;;;;;18.63;9.20;;;6.70;99.90;;;;;;5117629;28;20195;-69
2021/04/25 02:41:13;;;;;;;11.10;8.20;;;6.80;99.90;;;;;;5117867;28;20685;-67
2021/04/25 02:43:39;;;;;;;14.57;8.75;;;6.80;99.90;;;;;;5117566;28;20230;-68
2021/04/25 02:46:04;;;;;;;18.63;9.43;;;6.80;99.90;;;;;;5135170;27;20280;-66
2021/04/25 02:48:30;;;;;;;12.33;8.40;;;7.10;99.90;;;;;;5138082;27;20219;-65
2021/04/25 02:50:55;;;;;;;13.20;8.63;;;7.00;99.90;;;;;;5119672;27;20538;-67
2021/04/25 02:53:21;;;;;;;13.83;8.60;;;6.70;99.90;;;;;;5119554;27;20202;-68
2021/04/25 02:55:46;;;;;;;11.90;8.13;;;6.60;99.90;;;;;;5137887;27;20253;-66
2021/04/25 02:58:12;;;;;;;14.93;8.50;;;6.50;99.90;;;;;;5119436;27;20263;-65
2021/04/25 03:00:38;;;;;;;16.73;9.73;;;6.60;99.90;;;;;;5137848;27;20163;-65
2021/04/25 03:03:04;;;;;;;17.17;10.43;;;6.50;99.90;;;;;;5137702;27;20199;-68
2021/04/25 03:05:30;;;;;;;15.00;8.30;;;6.50;99.90;;;;;;5137722;27;20202;-70
2021/04/25 03:07:56;;;;;;;18.13;10.03;;;6.40;99.90;;;;;;5137611;27;20238;-68
2021/04/25 03:10:23;;;;;;;16.92;8.05;;;6.40;99.90;;;;;;5119229;27;20186;-69
2021/04/25 03:12:49;;;;;;;13.80;8.68;;;6.50;99.90;;;;;;5138063;27;20557;-67
2021/04/25 03:15:16;;;;;;;17.80;9.67;;;6.40;99.90;;;;;;5137647;27;20171;-66
2021/04/25 03:17:42;;;;;;;21.15;9.48;;;6.40;99.90;;;;;;5137913;27;20199;-65
2021/04/25 03:20:10;;;;;;;16.97;8.87;;;6.30;99.90;;;;;;5137613;27;20655;-69
2021/04/25 03:22:36;;;;;;;16.45;9.02;;;6.20;99.90;;;;;;5137792;27;20423;-67
2021/04/25 03:25:03;;;;;;;12.73;8.82;;;6.20;99.90;;;;;;5119005;27;20194;-67
2021/04/25 03:27:29;;;;;;;14.02;9.10;;;6.10;99.90;;;;;;5137679;27;20228;-66
2021/04/25 03:29:54;;;;;;;14.70;9.13;;;6.10;99.90;;;;;;5137256;27;20253;-66
2021/04/25 03:32:20;;;;;;;14.80;10.67;;;6.20;99.90;;;;;;5118797;27;20479;-67
2021/04/25 03:34:45;;;;;;;18.17;9.03;;;6.10;99.90;;;;;;5118709;27;20186;-67
2021/04/25 03:37:11;;;;;;;15.93;9.03;;;6.10;99.90;;;;;;5118286;27;20542;-68
2021/04/25 03:39:37;;;;;;;20.63;10.40;;;6.20;99.90;;;;;;5137030;27;20242;-65
2021/04/25 03:42:03;;;;;;;12.80;8.70;;;6.20;99.90;;;;;;5137605;27;20628;-65
2021/04/25 03:44:28;;;;;;;15.85;8.68;;;6.10;99.90;;;;;;5136967;27;20187;-66
2021/04/25 03:46:54;;;;;;;16.77;8.80;;;6.00;99.90;;;;;;5136737;27;20245;-66
2021/04/25 03:49:21;;;;;;;16.85;8.82;;;6.10;99.90;;;;;;5137039;27;20618;-68
2021/04/25 03:51:50;;;;;;;17.40;7.65;;;6.10;99.90;;;;;;5137111;27;20612;-65
2021/04/25 03:54:16;;;;;;;17.27;9.25;;;6.20;99.90;;;;;;5136772;27;20197;-67
2021/04/25 03:56:42;;;;;;;14.43;7.93;;;6.20;99.90;;;;;;5118433;27;20183;-65
2021/04/25 03:59:09;;;;;;;14.60;8.43;;;6.10;99.90;;;;;;5136731;27;20202;-66
2021/04/25 04:01:34;;;;;;;12.55;8.00;;;6.20;99.90;;;;;;5136912;27;20624;-66
2021/04/25 04:04:00;;;;;;;21.63;8.90;;;6.30;99.90;;;;;;5136646;27;20206;-65
2021/04/25 04:06:26;;;;;;;13.30;8.97;;;6.30;99.90;;;;;;5118208;27;20704;-67
2021/04/25 04:08:51;;;;;;;13.73;8.97;;;6.30;99.90;;;;;;5136369;27;20219;-65
2021/04/25 04:11:17;;;;;;;14.60;10.60;;;6.30;99.90;;;;;;5136683;27;20530;-69
2021/04/25 04:13:43;;;;;;;21.17;9.40;;;6.40;99.90;;;;;;5136412;27;20255;-67
2021/04/25 04:16:08;;;;;;;16.90;8.98;;;6.40;99.90;;;;;;5118047;27;20222;-67
2021/04/25 04:18:34;;;;;;;17.27;8.80;;;6.50;99.90;;;;;;5117865;27;20222;-67
2021/04/25 04:20:59;;;;;;;21.90;9.93;;;6.60;99.90;;;;;;5136247;27;20178;-66
2021/04/25 04:23:25;;;;;;;16.70;9.27;;;6.50;99.90;;;;;;5136264;27;20222;-68
2021/04/25 04:25:51;;;;;;;18.97;11.43;;;6.60;99.90;;;;;;5136216;27;20175;-68
2021/04/25 04:28:16;;;;;;;20.27;10.17;;;6.70;99.90;;;;;;5135965;27;20817;-67
2021/04/25 04:30:42;;;;;;;19.37;10.33;;;6.80;99.90;;;;;;5117653;27;20175;-66
2021/04/25 04:33:07;;;;;;;20.80;11.90;;;6.90;99.90;;;;;;5136035;27;20214;-67
2021/04/25 04:35:33;;;;;;;16.53;9.80;;;7.00;99.90;;;;;;5117609;27;20636;-66
2021/04/25 04:37:59;;;;;;;19.87;9.57;;;7.20;99.90;;;;;;5135933;27;20550;-66
2021/04/25 04:40:25;;;;;;;18.73;9.77;;;7.30;99.90;;;;;;5135916;27;20426;-67
2021/04/25 04:42:50;;;;;;;19.37;9.70;;;7.40;99.90;;;;;;5136244;27;20243;-67
2021/04/25 04:45:16;;;;;;;16.53;9.73;;;7.50;99.90;;;;;;5135873;27;20174;-68
2021/04/25 04:47:46;;;;;;;17.13;9.40;;;7.50;99.90;;;;;;5112713;28;20258;-68
2021/04/25 04:50:15;;;;;;;17.17;10.00;;;7.70;99.90;;;;;;5115277;28;20633;-65
2021/04/25 04:52:41;;;;;;;14.73;9.25;;;7.70;99.90;;;;;;5115512;28;20191;-67
2021/04/25 04:55:08;;;;;;;19.67;10.23;;;7.90;99.90;;;;;;5115069;28;20642;-67
2021/04/25 04:57:33;;;;;;;17.05;9.73;;;7.90;99.90;;;;;;5115453;28;20184;-67
2021/04/25 04:59:59;;;;;;;21.07;10.20;;;8.00;99.90;;;;;;5115014;28;20187;-67
2021/04/25 05:02:25;;;;;;;18.83;11.67;;;8.20;99.90;;;;;;5115276;28;20219;-67
2021/04/25 05:04:51;;;;;;;16.60;8.97;;;8.30;99.90;;;;;;5114789;28;20168;-67
2021/04/25 05:07:16;;;;;;;12.23;8.87;;;8.50;99.90;;;;;;5115117;28;20196;-66
2021/04/25 05:09:42;;;;;;;19.83;10.67;;;8.60;99.90;;;;;;5114983;28;20427;-68
2021/04/25 05:12:08;;;;;;;15.50;8.33;;;8.80;99.90;;;;;;5113611;28;20179;-67
2021/04/25 05:14:34;;;;;;;15.23;9.00;;;8.80;99.90;;;;;;5114708;28;20563;-67
2021/04/25 05:16:59;;;;;;;14.03;8.80;;;8.90;99.90;;;;;;5114638;28;20420;-66
2021/04/25 05:19:25;;;;;;;17.80;9.57;;;8.80;99.90;;;;;;5130557;27;20204;-65
2021/04/25 05:21:50;;;;;;;16.40;9.70;;;8.90;99.90;;;;;;5114803;28;20613;-67
2021/04/25 05:24:16;;;;;;;23.43;10.90;;;8.90;99.90;;;;;;5114467;28;20673;-67
2021/04/25 05:26:42;;;;;;;14.43;7.73;;;9.00;99.90;;;;;;5114718;28;20179;-67
2021/04/25 05:29:07;;;;;;;14.83;9.00;;;9.20;99.90;;;;;;5130185;27;20476;-65
2021/04/25 05:31:33;;;;;;;12.07;7.73;;;9.30;99.90;;;;;;5114687;28;20263;-66
2021/04/25 05:33:59;;;;;;;12.57;7.40;;;9.50;99.90;;;;;;5114338;28;20192;-66
2021/04/25 05:36:25;;;;;;;17.17;8.70;;;9.50;99.90;;;;;;5114524;28;20207;-67
2021/04/25 05:38:50;;;;;;;14.03;8.87;;;9.70;99.90;;;;;;5114228;28;20657;-68
2021/04/25 05:41:17;;;;;;;14.70;9.43;;;9.90;99.90;;;;;;5114388;28;20469;-67
2021/04/25 05:43:46;;;;;;;13.65;8.55;;;10.10;99.90;;;;;;5114196;28;20196;-66
2021/04/25 05:46:11;;;;;;;15.02;8.15;;;10.20;99.90;;;;;;5132734;27;20654;-67
2021/04/25 05:48:37;;;;;;;16.93;9.97;;;10.30;99.90;;;;;;5116202;27;20319;-66
2021/04/25 05:51:03;;;;;;;15.53;8.93;;;10.30;99.90;;;;;;5116384;27;20415;-67
2021/04/25 05:53:28;;;;;;;13.30;9.70;;;10.30;99.90;;;;;;5134702;27;20243;-65
2021/04/25 05:55:54;;;;;;;13.53;8.83;;;10.50;99.90;;;;;;5116129;28;20667;-66
2021/04/25 05:58:19;;;;;;;12.60;7.03;;;10.80;99.90;;;;;;5116152;27;20610;-68
2021/04/25 06:00:45;;;;;;;12.50;7.57;;;11.00;99.90;;;;;;5116111;28;20171;-67
2021/04/25 06:03:11;;;;;;;13.57;7.83;;;11.00;99.90;;;;;;5134586;27;20210;-69
2021/04/25 06:05:36;;;;;;;8.77;6.80;;;11.10;99.90;;;;;;5134544;28;20175;-67
2021/04/25 06:08:02;;;;;;;10.60;6.57;;;11.10;99.90;;;;;;5116018;28;20226;-66
2021/04/25 06:10:28;;;;;;;12.50;6.93;;;11.00;99.90;;;;;;5134551;28;20671;-69
2021/04/25 06:12:53;;;;;;;14.53;6.63;;;11.00;99.90;;;;;;5116185;28;20202;-67
2021/04/25 06:15:21;;;;;;;10.00;6.57;;;11.10;99.90;;;;;;5134555;28;20179;-70
2021/04/25 06:17:47;;;;;;;13.45;7.75;;;11.30;99.90;;;;;;5115672;28;20191;-72
2021/04/25 06:20:14;;;;;;;10.13;6.72;;;11.30;99.90;;;;;;5134469;28;20214;-68
2021/04/25 06:22:41;;;;;;;11.77;7.53;;;11.30;99.90;;;;;;5134777;27;20191;-68
2021/04/25 06:25:08;;;;;;;7.93;5.63;;;11.30;99.90;;;;;;5134500;28;20296;-66
2021/04/25 06:27:34;;;;;;;15.55;8.32;;;11.20;99.90;;;;;;5134496;27;20226;-66
2021/04/25 06:30:00;;;;;;;10.77;7.00;;;11.50;99.90;;;;;;5116026;28;20181;-68
2021/04/25 06:32:26;;;;;;;10.90;6.83;;;11.70;99.90;;;;;;5116049;27;20171;-67
2021/04/25 06:34:52;;;;;;;11.90;6.33;;;11.90;99.90;;;;;;5115952;28;20667;-67
2021/04/25 06:37:17;;;;;;;9.50;5.90;;;11.90;99.90;;;;;;5134578;27;20426;-69
2021/04/25 06:39:43;;;;;;;8.40;5.63;;;12.10;99.90;;;;;;5134251;28;20792;-66
2021/04/25 06:42:08;;;;;;;10.23;6.40;;;12.20;99.90;;;;;;5134595;28;20174;-69
2021/04/25 06:44:34;;;;;;;16.10;7.50;;;12.40;99.90;;;;;;5134183;27;20199;-66
2021/04/25 06:47:00;;;;;;;8.40;5.67;;;12.50;99.90;;;;;;5133945;28;20298;-69
2021/04/25 06:49:25;;;;;;;9.90;6.10;;;12.80;99.90;;;;;;5115686;28;20205;-69
2021/04/25 06:51:52;;;;;;;7.80;6.47;;;12.90;99.90;;;;;;5134308;28;20210;-69
2021/04/25 06:54:18;;;;;;;8.53;5.70;;;13.00;99.90;;;;;;5115681;28;20676;-68
2021/04/25 06:56:43;;;;;;;10.30;7.13;;;13.00;99.90;;;;;;5134268;28;20465;-66
2021/04/25 06:59:09;;;;;;;7.40;5.87;;;13.30;99.90;;;;;;5134117;27;20534;-68
2021/04/25 07:01:35;;;;;;;11.47;6.87;;;13.40;99.90;;;;;;5134367;28;20227;-68
2021/04/25 07:04:00;;;;;;;9.00;6.17;;;13.50;99.90;;;;;;5133923;27;20427;-66
2021/04/25 07:06:26;;;;;;;10.97;5.90;;;13.60;99.90;;;;;;5134190;28;20202;-67
2021/04/25 07:08:52;;;;;;;8.57;6.57;;;13.80;99.90;;;;;;5133848;27;20350;-66
2021/04/25 07:11:17;;;;;;;9.30;5.30;;;13.80;99.90;;;;;;5135417;27;20612;-68
2021/04/25 07:13:43;;;;;;;7.00;5.23;;;13.80;99.90;;;;;;5119147;27;20206;-67
2021/04/25 07:16:09;;;;;;;6.87;5.03;;;13.80;99.90;;;;;;5119221;27;20210;-66
2021/04/25 07:18:35;;;;;;;7.97;5.17;;;14.10;99.90;;;;;;5119083;27;20909;-69
2021/04/25 07:21:00;;;;;;;9.27;6.40;;;14.30;99.90;;;;;;5137442;27;20579;-69
2021/04/25 07:23:26;;;;;;;11.57;8.13;;;14.30;99.90;;;;;;5137390;27;20244;-67
2021/04/25 07:25:55;;;;;;;8.80;5.03;;;14.50;99.90;;;;;;5137349;27;20171;-67
2021/04/25 07:28:20;;;;;;;8.93;6.70;;;14.80;99.90;;;;;;5118887;27;20227;-66
2021/04/25 07:30:47;;;;;;;14.27;7.50;;;14.90;98.70;;;;;;5137299;27;20892;-68
2021/04/25 07:33:14;;;;;;;9.83;6.27;;;14.80;99.90;;;;;;5137292;27;20426;-68
2021/04/25 07:35:40;;;;;;;14.00;8.30;;;14.80;98.00;;;;;;5137134;27;20403;-66
2021/04/25 07:38:05;;;;;;;9.50;5.93;;;14.90;97.40;;;;;;5118760;27;20438;-66
2021/04/25 07:40:31;;;;;;;10.37;6.17;;;15.00;96.70;;;;;;5118698;27;20411;-67
2021/04/25 07:42:57;;;;;;;9.90;5.83;;;15.00;95.80;;;;;;5137034;27;20668;-66
2021/04/25 07:45:22;;;;;;;9.57;6.33;;;15.10;96.40;;;;;;5137144;27;20391;-68
2021/04/25 07:47:48;;;;;;;11.20;6.73;;;15.20;96.40;;;;;;5136667;27;20305;-68
2021/04/25 07:50:15;;;;;;;8.90;5.37;;;15.50;95.30;;;;;;5118549;27;20176;-70
2021/04/25 07:52:42;;;;;;;8.00;5.80;;;15.60;94.50;;;;;;5118594;27;20554;-68
2021/04/25 07:55:08;;;;;;;10.70;5.90;;;15.50;94.70;;;;;;5118463;27;20415;-69
2021/04/25 07:57:37;;;;;;;8.77;5.77;;;15.80;93.60;;;;;;5137144;27;20422;-68
2021/04/25 08:00:06;;;;;;;12.87;7.60;;;16.00;94.10;;;;;;5118360;27;20518;-67
2021/04/25 08:02:31;;;;;;;11.83;7.27;;;16.00;93.10;;;;;;5137070;27;20415;-69
2021/04/25 08:04:57;;;;;;;9.63;7.00;;;15.70;90.80;;;;;;5118248;27;20465;-68
2021/04/25 08:07:22;;;;;;;8.77;4.20;;;15.80;91.80;;;;;;5136828;27;20659;-67
2021/04/25 08:09:48;;;;;;;6.43;4.77;;;16.20;92.20;;;;;;5118206;27;20179;-67
2021/04/25 08:12:13;;;;;;;9.40;5.20;;;15.90;91.20;;;;;;5118194;27;20191;-69
2021/04/25 08:14:39;;;;;;;6.10;4.67;;;16.20;85.50;;;;;;5117889;27;20195;-67
2021/04/25 08:17:05;;;;;;;7.57;5.10;;;16.20;89.50;;;;;;5136752;27;20250;-68
2021/04/25 08:19:30;;;;;;;7.50;5.47;;;16.70;83.20;;;;;;5136384;27;20194;-68
2021/04/25 08:21:56;;;;;;;9.27;5.83;;;16.90;84.10;;;;;;5136509;27;20175;-67
2021/04/25 08:24:22;;;;;;;7.43;4.77;;;16.70;81.70;;;;;;5136281;27;20635;-67
2021/04/25 08:26:48;;;;;;;6.67;4.40;;;16.70;79.90;;;;;;5117864;27;20190;-68
2021/04/25 08:29:14;;;;;;;11.23;5.90;;;16.90;78.50;;;;;;5117707;27;20279;-67
2021/04/25 08:31:40;;;;;;;10.43;5.60;;;16.80;75.30;;;;;;5136352;27;20407;-67
2021/04/25 08:34:05;;;;;;;9.10;5.23;;;17.10;75.50;;;;;;5135997;27;20434;-67
2021/04/25 08:36:31;;;;;;;9.33;6.00;;;17.40;75.60;;;;;;5136168;27;20900;-70
2021/04/25 08:38:56;;;;;;;8.40;5.60;;;17.40;76.60;;;;;;5135871;27;20240;-68
2021/04/25 08:41:23;;;;;;;9.07;5.20;;;17.30;77.80;;;;;;5136043;27;20205;-67
2021/04/25 08:43:49;;;;;;;12.23;6.57;;;17.70;74.30;;;;;;5135607;27;20191;-69
2021/04/25 08:46:20;;;;;;;10.17;5.80;;;17.60;71.70;;;;;;5135715;27;20533;-68
2021/04/25 08:48:49;;;;;;;9.40;5.37;;;17.70;72.40;;;;;;5135693;27;20520;-67
2021/04/25 08:51:16;;;;;;;12.00;5.77;;;17.60;72.20;;;;;;5117430;27;20415;-70
2021/04/25 08:53:44;;;;;;;10.10;5.70;;;17.40;71.80;;;;;;5135644;27;20419;-68
2021/04/25 08:56:10;;;;;;;12.00;5.90;;;17.40;72.90;;;;;;5135786;27;20813;-67
2021/04/25 08:58:36;;;;;;;9.80;5.50;;;17.80;71.90;;;;;;5116945;27;20448;-67
2021/04/25 09:01:03;;;;;;;10.67;5.87;;;17.60;72.30;;;;;;5117108;27;20776;-68
2021/04/25 09:03:29;;;;;;;9.77;5.53;;;17.30;71.80;;;;;;5135447;27;20426;-67
2021/04/25 09:05:58;;;;;;;10.23;5.43;;;17.80;72.20;;;;;;5135474;27;20437;-69
2021/04/25 09:08:56;;;;;;;8.10;5.20;;;18.10;70.50;;;;;;5135328;27;20300;-68
2021/04/25 09:11:26;;;;;;;9.63;5.63;;;18.30;71.50;;;;;;5135579;27;20419;-66
2021/04/25 09:14:15;;;;;;;9.80;5.50;;;18.40;72.50;;;;;;5135215;27;20437;-67
2021/04/25 09:16:43;;;;;;;8.33;6.13;;;18.60;73.30;;;;;;5116920;27;20434;-67
2021/04/25 09:19:09;;;;;;;11.00;6.33;;;18.50;72.30;;;;;;5116847;27;20439;-68
2021/04/25 09:21:50;;;;;;;11.17;6.20;;;18.60;69.70;;;;;;5135373;27;20426;-69
2021/04/25 09:24:21;;;;;;;13.50;5.70;;;18.80;69.60;;;;;;5135209;27;20213;-67
2021/04/25 09:26:47;;;;;;;8.20;5.70;;;19.20;70.90;;;;;;5135364;27;20426;-68
2021/04/25 09:29:12;;;;;;;12.37;8.00;;;18.90;68.60;;;;;;5134850;27;20478;-69
2021/04/25 09:31:41;;;;;;;13.43;6.40;;;18.30;68.80;;;;;;5135173;27;20535;-68
2021/04/25 09:34:07;;;;;;;11.60;6.53;;;18.40;69.10;;;;;;5134525;27;20190;-66
2021/04/25 09:36:34;;;;;;;11.20;7.03;;;18.10;67.70;;;;;;5135255;27;20417;-69
2021/04/25 09:39:13;;;;;;;10.43;6.43;;;18.10;69.90;;;;;;5134955;27;20840;-69
2021/04/25 09:41:40;;;;;;;11.87;7.00;;;18.50;69.80;;;;;;5116635;27;20422;-71
2021/04/25 09:44:06;;;;;;;11.53;7.17;;;18.90;69.20;;;;;;5116390;27;20435;-69
2021/04/25 09:46:51;;;;;;;9.90;5.70;;;18.60;69.10;;;;;;5134651;27;20465;-67
2021/04/25 09:49:46;;;;;;;9.20;5.77;;;18.90;68.50;;;;;;5134754;27;20470;-68
2021/04/25 09:52:14;;;;;;;8.33;5.73;;;18.40;68.80;;;;;;5135236;27;20426;-70
2021/04/25 09:54:41;;;;;;;9.17;4.77;;;18.40;71.30;;;;;;5134541;27;20467;-68
2021/04/25 09:57:07;;;;;;;10.00;6.47;;;18.40;68.10;;;;;;5135032;28;20899;-68
2021/04/25 09:59:50;;;;;;;11.43;6.17;;;18.10;68.50;;;;;;5134599;27;20484;-66
2021/04/25 10:02:16;;;;;;;10.23;5.10;;;18.20;71.30;;;;;;5135184;28;20409;-69
2021/04/25 10:04:41;;;;;;;11.30;6.30;;;18.70;69.00;;;;;;5134598;27;20418;-68
2021/04/25 10:07:10;;;;;;;10.97;5.87;;;18.80;68.30;;;;;;5134862;28;20279;-70
2021/04/25 10:09:36;;;;;;;10.30;5.10;;;19.10;68.50;;;;;;5134498;27;20185;-68
2021/04/25 10:12:03;;;;;;;8.87;5.70;;;19.50;68.30;;;;;;5116283;28;20453;-69
2021/04/25 10:14:33;;;;;;;10.33;6.43;;;19.80;67.50;;;;;;5116128;28;20436;-68
2021/04/25 10:17:01;;;;;;;7.80;5.23;;;19.90;69.00;;;;;;5134816;28;20550;-67
2021/04/25 10:19:27;;;;;;;9.63;5.90;;;19.40;68.50;;;;;;5116018;28;20430;-68
2021/04/25 10:21:53;;;;;;;13.77;8.20;;;19.30;69.20;;;;;;5134678;28;20415;-67
2021/04/25 10:24:20;;;;;;;12.60;5.80;;;19.20;67.70;;;;;;5134485;27;20434;-68
2021/04/25 10:27:08;;;;;;;9.90;5.80;;;19.50;67.10;;;;;;5134690;28;20403;-69
2021/04/25 10:29:50;;;;;;;15.30;7.03;;;19.60;66.70;;;;;;5134387;27;20502;-67
2021/04/25 10:32:17;;;;;;;8.20;5.63;;;19.10;67.50;;;;;;5116168;28;20523;-67
2021/04/25 10:34:43;;;;;;;8.40;6.07;;;19.10;66.80;;;;;;5115969;28;20806;-67
2021/04/25 10:37:11;;;;;;;9.57;6.00;;;19.40;67.00;;;;;;5134613;28;20433;-68
2021/04/25 10:39:50;;;;;;;12.30;6.10;;;19.70;67.10;;;;;;5134230;27;20277;-67
2021/04/25 10:42:23;;;;;;;11.00;5.50;;;19.30;66.90;;;;;;5134209;28;20432;-69
2021/04/25 10:45:16;;;;;;;8.87;5.23;;;19.80;67.50;;;;;;5134268;27;20398;-69
2021/04/25 10:47:47;;;;;;;10.73;5.83;;;19.50;65.50;;;;;;5137475;27;20815;-67
2021/04/25 10:50:15;;;;;;;10.73;6.47;;;19.40;67.50;;;;;;5138340;27;20402;-69
2021/04/25 10:52:44;;;;;;;13.07;6.07;;;19.50;66.30;;;;;;5138422;27;20438;-69
2021/04/25 11:00:30;;;;;;;10.70;6.40;;;20.20;65.00;;;;;;5137913;27;20916;-68
2021/04/25 11:03:01;;;;;;;14.67;6.53;;;20.20;64.30;;;;;;5137731;27;20954;-68
2021/04/25 11:05:47;;;;;;;11.90;6.87;;;20.10;65.50;;;;;;5137978;27;20948;-67
2021/04/25 11:08:13;;;;;;;13.13;7.07;;;20.30;66.70;;;;;;5119197;27;20474;-69
2021/04/25 11:11:00;;;;;;;14.07;7.37;;;19.50;66.20;;;;;;5137673;27;20459;-67
2021/04/25 11:13:40;;;;;;;8.00;6.07;;;19.30;65.90;;;;;;5137828;27;20198;-67
2021/04/25 11:16:20;;;;;;;9.57;5.60;;;19.30;65.70;;;;;;5137738;27;20804;-68
2021/04/25 11:18:56;;;;;;;11.20;6.17;;;19.00;65.20;;;;;;5137551;27;20501;-67
2021/04/25 11:21:41;;;;;;;8.17;5.87;;;19.40;67.20;;;;;;5119148;27;20430;-68
2021/04/25 11:24:06;;;;;;;11.10;6.07;;;19.20;65.60;;;;;;5137865;27;20423;-67
2021/04/25 11:26:35;;;;;;;10.73;6.40;;;19.50;65.20;;;;;;5137652;27;20409;-68
2021/04/25 11:29:14;;;;;;;12.13;6.23;;;19.20;64.60;;;;;;5137352;27;20214;-70
2021/04/25 11:31:55;;;;;;;8.23;5.13;;;19.70;65.20;;;;;;5137643;27;20494;-69
2021/04/25 11:34:30;;;;;;;10.33;6.20;;;19.40;66.60;;;;;;5137351;27;20445;-67
2021/04/25 11:37:15;;;;;;;8.87;5.87;;;19.60;65.60;;;;;;5137162;27;20411;-67
2021/04/25 11:39:44;;;;;;;10.83;6.67;;;19.70;65.80;;;;;;5118687;27;20435;-67
2021/04/25 11:42:12;;;;;;;16.97;7.27;;;19.60;66.40;;;;;;5137529;27;20425;-66
2021/04/25 11:44:42;;;;;;;8.20;6.10;;;19.20;64.70;;;;;;5118651;27;20522;-69
2021/04/25 11:47:16;;;;;;;9.73;5.83;;;19.40;67.00;;;;;;5136898;27;20461;-68
2021/04/25 11:49:45;;;;;;;10.00;7.10;;;19.40;66.70;;;;;;5136909;27;20465;-71
2021/04/25 11:52:23;;;;;;;13.27;7.00;;;19.00;65.40;;;;;;5136897;27;20411;-68
2021/04/25 11:55:12;;;;;;;11.23;7.50;;;19.10;67.90;;;;;;5136884;27;20414;-68
2021/04/25 11:57:41;;;;;;;11.70;7.60;;;19.10;66.00;;;;;;5118021;27;20535;-67
2021/04/25 12:00:22;;;;;;;8.83;6.13;;;19.30;64.80;;;;;;5136792;27;20804;-67
2021/04/25 12:02:53;;;;;;;11.77;6.87;;;19.50;65.70;;;;;;5136530;27;20521;-68
2021/04/25 12:05:23;;;;;;;13.50;6.47;;;19.70;66.80;;;;;;5118354;27;20403;-69
2021/04/25 12:07:53;;;;;;;10.80;6.30;;;19.50;65.30;;;;;;5118229;27;20482;-68
2021/04/25 12:10:22;;;;;;;15.13;7.87;;;19.30;66.30;;;;;;5136675;27;20462;-69
2021/04/25 12:13:20;;;;;;;10.97;5.80;;;19.40;65.80;;;;;;5118276;27;20536;-68
2021/04/25 12:16:04;;;;;;;7.97;4.97;;;19.90;65.00;;;;;;5136509;27;20896;-68
2021/04/25 12:18:36;;;;;;;9.30;5.90;;;20.30;64.40;;;;;;5136399;27;20423;-69
2021/04/25 12:21:13;;;;;;;8.90;5.63;;;20.60;65.00;;;;;;5118022;27;20515;-68
2021/04/25 12:23:49;;;;;;;12.80;7.40;;;20.30;64.70;;;;;;5136125;27;20511;-68
2021/04/25 12:26:17;;;;;;;10.67;6.90;;;20.20;64.30;;;;;;5136424;27;20414;-67
2021/04/25 12:28:45;;;;;;;9.80;5.37;;;20.40;63.70;;;;;;5136011;27;20487;-67
2021/04/25 12:31:19;;;;;;;10.83;6.40;;;20.90;62.60;;;;;;5136302;27;20980;-70
2021/04/25 12:33:54;;;;;;;8.63;5.57;;;20.80;62.80;;;;;;5136021;27;20426;-68
2021/04/25 12:36:25;;;;;;;11.20;6.03;;;20.40;63.10;;;;;;5117641;27;20579;-68
2021/04/25 12:39:09;;;;;;;9.00;5.67;;;21.00;63.10;;;;;;5135878;27;20454;-67
2021/04/25 12:41:42;;;;;;;13.10;7.30;;;20.60;62.80;;;;;;5117585;27;20456;-69
2021/04/25 12:44:08;;;;;;;11.43;6.57;;;20.70;63.10;;;;;;5135985;27;20426;-68
2021/04/25 12:46:34;;;;;;;9.60;5.47;;;20.50;65.60;;;;;;5135754;27;20815;-68
2021/04/25 12:49:11;;;;;;;6.90;3.90;;;21.10;64.00;;;;;;5135661;27;20310;-70